
Distance (Route):
Temperature : 12.6°C
Humidity : 41.5%
Pressure : 0hPa| Receiver | Frames | First received | Last received |
|---|---|---|---|
| LZ4TU-5 | 191 | 2026-08-31 23:03:58 | 2026-09-01 01:10:00 |
| Receiver | Date | Latitude | Longitude | Direction | Speed | Altitude | Climb | Temperature | Humidity | Pressure | Voltage | Killtimer | Uptime | BKT | XDATA |
|---|---|---|---|---|---|---|---|---|---|---|---|---|---|---|---|
| LZ4TU-5 | 2026-09-01 01:10:00 | 44.22176 | 27.28115 | 226° | 13km/h | 2217m | -5.4m/s | 12.6°C | 41.5% | 0hPa | 0V | 08:00:00 | 00:00:00 | 00:00:00 | |
| LZ4TU-5 | 2026-09-01 01:09:54 | 44.22189 | 27.28133 | 220° | 11km/h | 2256m | -6.0m/s | 12.4°C | 40.4% | 0hPa | 0V | 08:00:00 | 00:00:00 | 00:00:00 | |
| LZ4TU-5 | 2026-09-01 01:09:50 | 44.22198 | 27.28143 | 214° | 11km/h | 2283m | -6.2m/s | 12.3°C | 38.9% | 0hPa | 0V | 08:00:00 | 00:00:00 | 00:00:00 | |
| LZ4TU-5 | 2026-09-01 01:09:46 | 44.22208 | 27.28151 | 202° | 11km/h | 2313m | -8.5m/s | 12.0°C | 41.8% | 0hPa | 0V | 08:00:00 | 00:00:00 | 00:00:00 | |
| LZ4TU-5 | 2026-09-01 01:09:41 | 44.22221 | 27.28160 | 199° | 11km/h | 2351m | -8.6m/s | 11.7°C | 43.5% | 0hPa | 0V | 08:00:00 | 00:00:00 | 00:00:00 | |
| LZ4TU-5 | 2026-09-01 01:09:37 | 44.22230 | 27.28165 | 195° | 11km/h | 2379m | -6.9m/s | 11.4°C | 45.5% | 0hPa | 0V | 08:00:00 | 00:00:00 | 00:00:00 | |
| LZ4TU-5 | 2026-09-01 01:09:33 | 44.22241 | 27.28170 | 201° | 13km/h | 2404m | -7.4m/s | 11.2°C | 46.6% | 0hPa | 0V | 08:00:00 | 00:00:00 | 00:00:00 | |
| LZ4TU-5 | 2026-09-01 01:09:28 | 44.22254 | 27.28175 | 193° | 11km/h | 2437m | -6.1m/s | 10.9°C | 47.6% | 0hPa | 0V | 08:00:00 | 00:00:00 | 00:00:00 | |
| LZ4TU-5 | 2026-09-01 01:09:23 | 44.22268 | 27.28182 | 197° | 11km/h | 2469m | -8.7m/s | 10.6°C | 49.4% | 0hPa | 0V | 08:00:00 | 00:00:00 | 00:00:00 | |
| LZ4TU-5 | 2026-09-01 01:09:18 | 44.22280 | 27.28189 | 211° | 11km/h | 2502m | -6.6m/s | 10.4°C | 49.0% | 0hPa | 0V | 08:00:00 | 00:00:00 | 00:00:00 | |
| LZ4TU-5 | 2026-09-01 01:09:14 | 44.22289 | 27.28195 | 207° | 9km/h | 2528m | -6.8m/s | 10.2°C | 50.2% | 0hPa | 0V | 08:00:00 | 00:00:00 | 00:00:00 | |
| LZ4TU-5 | 2026-09-01 01:09:10 | 44.22297 | 27.28201 | 205° | 9km/h | 2557m | -6.6m/s | 10.0°C | 50.1% | 0hPa | 0V | 08:01:00 | 00:00:00 | 00:00:00 | |
| LZ4TU-5 | 2026-09-01 01:09:05 | 44.22307 | 27.28207 | 215° | 9km/h | 2587m | -5.1m/s | 9.8°C | 49.3% | 0hPa | 0V | 08:01:00 | 00:00:00 | 00:00:00 | |
| LZ4TU-5 | 2026-09-01 01:09:00 | 44.22314 | 27.28214 | 227° | 5km/h | 2619m | -7.5m/s | 9.7°C | 40.5% | 0hPa | 0V | 08:01:00 | 00:00:00 | 00:00:00 | |
| LZ4TU-5 | 2026-09-01 01:08:56 | 44.22319 | 27.28219 | 212° | 5km/h | 2647m | -5.9m/s | 9.6°C | 37.2% | 0hPa | 0V | 08:01:00 | 00:00:00 | 00:00:00 | |
| LZ4TU-5 | 2026-09-01 01:08:51 | 44.22325 | 27.28226 | 222° | 7km/h | 2679m | -6.2m/s | 9.2°C | 43.3% | 0hPa | 0V | 08:01:00 | 00:00:00 | 00:00:00 | |
| LZ4TU-5 | 2026-09-01 01:08:46 | 44.22330 | 27.28234 | 238° | 7km/h | 2712m | -7.1m/s | 9.1°C | 40.3% | 0hPa | 0V | 08:01:00 | 00:00:00 | 00:00:00 | |
| LZ4TU-5 | 2026-09-01 01:08:41 | 44.22336 | 27.28243 | 225° | 9km/h | 2746m | -6.3m/s | 8.9°C | 39.5% | 0hPa | 0V | 08:01:00 | 00:00:00 | 00:00:00 | |
| LZ4TU-5 | 2026-09-01 01:08:36 | 44.22344 | 27.28253 | 233° | 7km/h | 2781m | -7.7m/s | 8.6°C | 43.2% | 0hPa | 0V | 08:01:00 | 00:00:00 | 00:00:00 | |
| LZ4TU-5 | 2026-09-01 01:08:31 | 44.22351 | 27.28261 | 214° | 9km/h | 2815m | -6.6m/s | 8.4°C | 43.1% | 0hPa | 0V | 08:01:00 | 00:00:00 | 00:00:00 | |
| LZ4TU-5 | 2026-09-01 01:08:26 | 44.22360 | 27.28268 | 195° | 9km/h | 2850m | -4.3m/s | 8.5°C | 36.5% | 0hPa | 0V | 08:01:00 | 00:00:00 | 00:00:00 | |
| LZ4TU-5 | 2026-09-01 01:08:21 | 44.22372 | 27.28273 | 206° | 9km/h | 2885m | -7.4m/s | 8.3°C | 35.7% | 0hPa | 0V | 08:01:00 | 00:00:00 | 00:00:00 | |
| LZ4TU-5 | 2026-09-01 01:08:16 | 44.22383 | 27.28280 | 199° | 9km/h | 2922m | -7.4m/s | 8.0°C | 35.3% | 0hPa | 0V | 08:02:00 | 00:00:00 | 00:00:00 | |
| LZ4TU-5 | 2026-09-01 01:08:12 | 44.22396 | 27.28283 | 192° | 13km/h | 2949m | -6.8m/s | 7.7°C | 35.7% | 0hPa | 0V | 08:02:00 | 00:00:00 | 00:00:00 | |
| LZ4TU-5 | 2026-09-01 01:08:07 | 44.22412 | 27.28288 | 196° | 16km/h | 2981m | -8.0m/s | 7.5°C | 34.0% | 0hPa | 0V | 08:02:00 | 00:00:00 | 00:00:00 | |
| LZ4TU-5 | 2026-09-01 01:08:02 | 44.22432 | 27.28294 | 191° | 15km/h | 3015m | -4.9m/s | 7.6°C | 19.9% | 0hPa | 0V | 08:02:00 | 00:00:00 | 00:00:00 | |
| LZ4TU-5 | 2026-09-01 01:07:58 | 44.22448 | 27.28297 | 190° | 16km/h | 3043m | -5.9m/s | 7.4°C | 21.0% | 0hPa | 0V | 08:02:00 | 00:00:00 | 00:00:00 | |
| LZ4TU-5 | 2026-09-01 01:07:53 | 44.22470 | 27.28300 | 189° | 16km/h | 3078m | -8.4m/s | 7.1°C | 21.8% | 0hPa | 0V | 08:02:00 | 00:00:00 | 00:00:00 | |
| LZ4TU-5 | 2026-09-01 01:07:49 | 44.22489 | 27.28303 | 183° | 18km/h | 3107m | -7.2m/s | 6.8°C | 23.3% | 0hPa | 0V | 08:02:00 | 00:00:00 | 00:00:00 | |
| LZ4TU-5 | 2026-09-01 01:07:45 | 44.22508 | 27.28305 | 180° | 18km/h | 3135m | -8.2m/s | 6.6°C | 26.3% | 0hPa | 0V | 08:02:00 | 00:00:00 | 00:00:00 | |
| LZ4TU-5 | 2026-09-01 01:07:40 | 44.22532 | 27.28307 | 188° | 18km/h | 3171m | -6.9m/s | 6.2°C | 55.9% | 0hPa | 0V | 08:02:00 | 00:00:00 | 00:00:00 | |
| LZ4TU-5 | 2026-09-01 01:07:36 | 44.22551 | 27.28309 | 184° | 16km/h | 3197m | -5.5m/s | 6.3°C | 50.2% | 0hPa | 0V | 08:02:00 | 00:00:00 | 00:00:00 | |
| LZ4TU-5 | 2026-09-01 01:07:31 | 44.22572 | 27.28310 | 186° | 16km/h | 3234m | -7.1m/s | 6.5°C | 39.8% | 0hPa | 0V | 08:02:00 | 00:00:00 | 00:00:00 | |
| LZ4TU-5 | 2026-09-01 01:07:26 | 44.22591 | 27.28312 | 185° | 13km/h | 3267m | -6.3m/s | 6.4°C | 31.8% | 0hPa | 0V | 08:02:00 | 00:00:00 | 00:00:00 | |
| LZ4TU-5 | 2026-09-01 01:07:22 | 44.22602 | 27.28314 | 189° | 9km/h | 3292m | -7.8m/s | 6.6°C | 25.7% | 0hPa | 0V | 08:02:00 | 00:00:00 | 00:00:00 | |
| LZ4TU-5 | 2026-09-01 01:07:17 | 44.22614 | 27.28315 | 172° | 9km/h | 3324m | -6.7m/s | 6.5°C | 21.0% | 0hPa | 0V | 08:02:00 | 00:00:00 | 00:00:00 | |
| LZ4TU-5 | 2026-09-01 01:07:13 | 44.22621 | 27.28314 | 186° | 7km/h | 3351m | -8.4m/s | 6.5°C | 19.7% | 0hPa | 0V | 08:02:00 | 00:00:00 | 00:00:00 | |
| LZ4TU-5 | 2026-09-01 01:07:08 | 44.22629 | 27.28311 | 150° | 5km/h | 3385m | -6.1m/s | 6.4°C | 19.8% | 0hPa | 0V | 08:02:00 | 00:00:00 | 00:00:00 | |
| LZ4TU-5 | 2026-09-01 01:07:03 | 44.22635 | 27.28304 | 145° | 7km/h | 3422m | -5.3m/s | 6.3°C | 15.8% | 0hPa | 0V | 08:02:00 | 00:00:00 | 00:00:00 | |
| LZ4TU-5 | 2026-09-01 01:06:58 | 44.22640 | 27.28295 | 119° | 7km/h | 3461m | -7.5m/s | 6.0°C | 19.6% | 0hPa | 0V | 08:02:00 | 00:00:00 | 00:00:00 | |
| LZ4TU-5 | 2026-09-01 01:06:53 | 44.22646 | 27.28284 | 123° | 9km/h | 3495m | -4.9m/s | 5.6°C | 25.9% | 0hPa | 0V | 08:02:00 | 00:00:00 | 00:00:00 | |
| LZ4TU-5 | 2026-09-01 01:06:50 | 44.22649 | 27.28276 | 126° | 5km/h | 3518m | -5.9m/s | 5.4°C | 26.0% | 0hPa | 0V | 08:02:00 | 00:00:00 | 00:00:00 | |
| LZ4TU-5 | 2026-09-01 01:06:44 | 44.22656 | 27.28265 | 118° | 9km/h | 3556m | -5.9m/s | 5.0°C | 27.5% | 0hPa | 0V | 08:02:00 | 00:00:00 | 00:00:00 | |
| LZ4TU-5 | 2026-09-01 01:06:39 | 44.22661 | 27.28253 | 137° | 7km/h | 3588m | -6.1m/s | 4.6°C | 33.3% | 0hPa | 0V | 08:02:00 | 00:00:00 | 00:00:00 | |
| LZ4TU-5 | 2026-09-01 01:06:35 | 44.22665 | 27.28243 | 131° | 7km/h | 3620m | -7.5m/s | 4.4°C | 34.2% | 0hPa | 0V | 08:03:00 | 00:00:00 | 00:00:00 | |
| LZ4TU-5 | 2026-09-01 01:06:30 | 44.22671 | 27.28234 | 133° | 7km/h | 3655m | -6.5m/s | 4.0°C | 34.8% | 0hPa | 0V | 08:03:00 | 00:00:00 | 00:00:00 | |
| LZ4TU-5 | 2026-09-01 01:06:26 | 44.22676 | 27.28226 | 135° | 9km/h | 3680m | -8.7m/s | 3.8°C | 35.3% | 0hPa | 0V | 08:03:00 | 00:00:00 | 00:00:00 | |
| LZ4TU-5 | 2026-09-01 01:06:22 | 44.22682 | 27.28217 | 129° | 11km/h | 3713m | -8.2m/s | 3.5°C | 34.0% | 0hPa | 0V | 08:03:00 | 00:00:00 | 00:00:00 | |
| LZ4TU-5 | 2026-09-01 01:06:17 | 44.22691 | 27.28203 | 135° | 11km/h | 3750m | -5.3m/s | 3.1°C | 34.7% | 0hPa | 0V | 08:03:00 | 00:00:00 | 00:00:00 | |
| LZ4TU-5 | 2026-09-01 01:06:13 | 44.22699 | 27.28193 | 137° | 11km/h | 3776m | -7.3m/s | 3.0°C | 27.8% | 0hPa | 0V | 08:03:00 | 00:00:00 | 00:00:00 | |
| LZ4TU-5 | 2026-09-01 01:06:09 | 44.22708 | 27.28182 | 144° | 11km/h | 3805m | -7.1m/s | 2.9°C | 20.4% | 0hPa | 0V | 08:03:00 | 00:00:00 | 00:00:00 | |
| LZ4TU-5 | 2026-09-01 01:06:04 | 44.22718 | 27.28172 | 148° | 9km/h | 3841m | -8.6m/s | 2.7°C | 20.0% | 0hPa | 0V | 08:03:00 | 00:00:00 | 00:00:00 | |
| LZ4TU-5 | 2026-09-01 01:05:59 | 44.22730 | 27.28162 | 144° | 11km/h | 3877m | -6.5m/s | 2.5°C | 18.6% | 0hPa | 0V | 08:03:00 | 00:00:00 | 00:00:00 | |
| LZ4TU-5 | 2026-09-01 01:05:54 | 44.22740 | 27.28151 | 137° | 9km/h | 3913m | -8.9m/s | 2.3°C | 17.7% | 0hPa | 0V | 08:03:00 | 00:00:00 | 00:00:00 | |
| LZ4TU-5 | 2026-09-01 01:05:50 | 44.22747 | 27.28143 | 135° | 9km/h | 3948m | -7.3m/s | 2.1°C | 17.2% | 0hPa | 0V | 08:03:00 | 00:00:00 | 00:00:00 | |
| LZ4TU-5 | 2026-09-01 01:05:45 | 44.22754 | 27.28134 | 136° | 7km/h | 3983m | -7.1m/s | 1.8°C | 18.0% | 0hPa | 0V | 00:00:00 | 00:00:00 | 00:00:00 | |
| LZ4TU-5 | 2026-09-01 01:05:41 | 44.22762 | 27.28125 | 134° | 5km/h | 4016m | -6.2m/s | 1.5°C | 19.7% | 0hPa | 0V | 00:00:00 | 00:00:00 | 00:00:00 | |
| LZ4TU-5 | 2026-09-01 01:05:37 | 44.22766 | 27.28118 | 148° | 7km/h | 4043m | -8.0m/s | 1.3°C | 19.4% | 0hPa | 0V | 00:00:00 | 00:00:00 | 00:00:00 | |
| LZ4TU-5 | 2026-09-01 01:05:34 | 44.22771 | 27.28110 | 154° | 9km/h | 4072m | -7.3m/s | 1.0°C | 19.5% | 0hPa | 0V | 00:00:00 | 00:00:00 | 00:00:00 | |
| LZ4TU-5 | 2026-09-01 01:05:28 | 44.22779 | 27.28103 | 139° | 9km/h | 4102m | -8.9m/s | 0.8°C | 18.8% | 0hPa | 0V | 00:00:00 | 00:00:00 | 00:00:00 | |
| LZ4TU-5 | 2026-09-01 01:05:23 | 44.22787 | 27.28091 | 145° | 7km/h | 4133m | -7.1m/s | 0.5°C | 18.6% | 0hPa | 0V | 00:00:00 | 00:00:00 | 00:00:00 | |
| LZ4TU-5 | 2026-09-01 01:03:18 | 44.22959 | 27.27599 | 82° | 18km/h | 5007m | -8.5m/s | -2.2°C | 8.9% | 0hPa | 0V | 08:06:00 | 00:00:00 | 00:00:00 | |
| LZ4TU-5 | 2026-09-01 01:03:14 | 44.22956 | 27.27570 | 83° | 18km/h | 5043m | -6.0m/s | -2.4°C | 9.5% | 0hPa | 0V | 00:00:00 | 00:00:00 | 00:00:00 | |
| LZ4TU-5 | 2026-09-01 01:01:29 | 44.22825 | 27.26869 | 78° | 22km/h | 5774m | -6.1m/s | -8.0°C | 10.5% | 0hPa | 0V | 00:00:00 | 00:00:00 | 00:00:00 | |
| LZ4TU-5 | 2026-09-01 01:01:24 | 44.22819 | 27.26834 | 79° | 22km/h | 5809m | -7.7m/s | -8.3°C | 10.6% | 0hPa | 0V | 00:00:00 | 00:00:00 | 00:00:00 | |
| LZ4TU-5 | 2026-09-01 00:59:32 | 44.22805 | 27.25785 | 92° | 26km/h | 6555m | -7.1m/s | -12.6°C | 11.6% | 0hPa | 0V | 00:00:00 | 00:00:00 | 00:00:00 | |
| LZ4TU-5 | 2026-09-01 00:59:28 | 44.22806 | 27.25748 | 94° | 29km/h | 6581m | -5.8m/s | -12.8°C | 19.0% | 0hPa | 0V | 00:00:00 | 00:00:00 | 00:00:00 | |
| LZ4TU-5 | 2026-09-01 00:57:53 | 44.22879 | 27.24832 | 109° | 33km/h | 7226m | -8.3m/s | -17.8°C | 12.8% | 0hPa | 0V | 00:00:00 | 00:00:00 | 00:00:00 | |
| LZ4TU-5 | 2026-09-01 00:57:48 | 44.22892 | 27.24776 | 110° | 35km/h | 7261m | -7.6m/s | -18.1°C | 0% | 0hPa | 0V | 00:00:00 | 00:00:00 | 00:00:00 | |
| LZ4TU-5 | 2026-09-01 00:55:45 | 44.23520 | 27.22839 | 117° | 57km/h | 8118m | -8.6m/s | -23.9°C | 23.7% | 0hPa | 0V | 00:00:00 | 00:00:00 | 00:00:00 | |
| LZ4TU-5 | 2026-09-01 00:55:40 | 44.23553 | 27.22745 | 118° | 58km/h | 8150m | -7.1m/s | -24.2°C | 0% | 0hPa | 0V | 00:00:00 | 00:00:00 | 00:00:00 | |
| LZ4TU-5 | 2026-09-01 00:53:01 | 44.24814 | 27.19339 | 122° | 71km/h | 8944m | -4.2m/s | -30.9°C | 20.8% | 0hPa | 0V | 00:00:00 | 00:00:00 | 00:00:00 | |
| LZ4TU-5 | 2026-09-01 00:52:56 | 44.24859 | 27.19230 | 121° | 73km/h | 8978m | -6.2m/s | -31.1°C | 20.8% | 0hPa | 0V | 00:00:00 | 00:00:00 | 00:00:00 | |
| LZ4TU-5 | 2026-09-01 00:51:09 | 44.25959 | 27.16554 | 118° | 84km/h | 9467m | -4.7m/s | -34.3°C | 21.1% | 0hPa | 0V | 00:00:00 | 00:00:00 | 00:00:00 | |
| LZ4TU-5 | 2026-09-01 00:51:04 | 44.26008 | 27.16423 | 119° | 84km/h | 9487m | -4.3m/s | -34.5°C | 21.3% | 0hPa | 0V | 00:00:00 | 00:00:00 | 00:00:00 | |
| LZ4TU-5 | 2026-09-01 00:48:42 | 44.27469 | 27.12652 | 118° | 88km/h | 10088m | -3.2m/s | -40.1°C | 33.2% | 0hPa | 0V | 00:00:00 | 00:00:00 | 00:00:00 | |
| LZ4TU-5 | 2026-09-01 00:48:36 | 44.27519 | 27.12517 | 118° | 86km/h | 10108m | -6.3m/s | -40.3°C | 33.0% | 0hPa | 0V | 00:00:00 | 00:00:00 | 00:00:00 | |
| LZ4TU-5 | 2026-09-01 00:45:37 | 44.29417 | 27.07837 | 122° | 89km/h | 10980m | -4.8m/s | -47.0°C | 28.7% | 0hPa | 0V | 00:00:00 | 00:00:00 | 00:00:00 | |
| LZ4TU-5 | 2026-09-01 00:41:37 | 44.32306 | 27.01761 | 121° | 69km/h | 12040m | -3.8m/s | -54.3°C | 20.9% | 0hPa | 0V | 00:00:00 | 00:00:00 | 00:00:00 | |
| LZ4TU-5 | 2026-09-01 00:41:33 | 44.32340 | 27.01672 | 118° | 73km/h | 12054m | -5.5m/s | -54.4°C | 20.7% | 0hPa | 0V | 00:00:00 | 00:00:00 | 00:00:00 | |
| LZ4TU-5 | 2026-09-01 00:39:37 | 44.33307 | 26.99023 | 112° | 80km/h | 12617m | -4.4m/s | -57.5°C | 17.8% | 0hPa | 0V | 00:00:00 | 00:00:00 | 00:00:00 | |
| LZ4TU-5 | 2026-09-01 00:39:32 | 44.33344 | 26.98895 | 111° | 77km/h | 12638m | -4.0m/s | -57.6°C | 17.3% | 0hPa | 0V | 00:00:00 | 00:00:00 | 00:00:00 | |
| LZ4TU-5 | 2026-09-01 00:37:40 | 44.33945 | 26.94780 | 0° | 0km/h | 14383m | 0.0m/s | -59.2°C | 16.4% | 0hPa | 0V | 00:00:00 | 00:00:00 | 00:00:00 | |
| LZ4TU-5 | 2026-09-01 00:37:35 | 44.33945 | 26.94780 | 0° | 0km/h | 14383m | 0.0m/s | -59.3°C | 18.9% | 0hPa | 0V | 00:00:00 | 00:00:00 | 00:00:00 | |
| LZ4TU-5 | 2026-09-01 00:35:45 | -21.71408 | 144.50522 | 0° | 0km/h | 2906m | 0.0m/s | -61.1°C | 16.6% | 0hPa | 0V | 00:00:00 | 00:00:00 | 00:00:00 | |
| LZ4TU-5 | 2026-09-01 00:35:40 | -38.00347 | 124.95934 | 0° | 0km/h | 8065m | 0.0m/s | -61.3°C | 15.0% | 0hPa | 0V | 00:00:00 | 00:00:00 | 00:00:00 | |
| LZ4TU-5 | 2026-09-01 00:33:50 | 44.35153 | 26.89397 | 0° | 0km/h | 14420m | 0.0m/s | -60.7°C | 7.1% | 0hPa | 0V | 00:00:00 | 00:00:00 | 00:00:00 | |
| LZ4TU-5 | 2026-09-01 00:33:45 | 44.35153 | 26.89397 | 0° | 0km/h | 14420m | 0.0m/s | -60.6°C | 11.5% | 0hPa | 0V | 00:00:00 | 00:00:00 | 00:00:00 | |
| LZ4TU-5 | 2026-09-01 00:29:56 | 44.72478 | 30.07013 | 0° | 0km/h | 44012m | 0.0m/s | -60.9°C | 8.2% | 0hPa | 0V | 00:00:00 | 00:00:00 | 00:00:00 | |
| LZ4TU-5 | 2026-09-01 00:28:03 | -30.44703 | -66.30382 | 0° | 0km/h | 5457m | 0.0m/s | -58.8°C | 0% | 0hPa | 0V | 00:00:00 | 00:00:00 | 00:00:00 | |
| LZ4TU-5 | 2026-09-01 00:25:43 | -30.07832 | -58.37173 | 0° | 0km/h | 5338m | 0.0m/s | -60.1°C | 4.0% | 0hPa | 0V | 00:00:00 | 00:00:00 | 00:00:00 | |
| LZ4TU-5 | 2026-09-01 00:25:39 | -28.93703 | -70.17899 | 0° | 0km/h | 4974m | 0.0m/s | -59.9°C | 5.8% | 0hPa | 0V | 00:00:00 | 00:00:00 | 00:00:00 | |
| LZ4TU-5 | 2026-09-01 00:20:11 | -12.04853 | -77.04947 | 268° | 199km/h | 1013m | -0.2m/s | -58.2°C | 4.7% | 0hPa | 0V | 00:00:00 | 00:00:00 | 00:00:00 | |
| LZ4TU-5 | 2026-09-01 00:20:07 | -12.04815 | -77.04743 | 249° | 208km/h | 1007m | -1.4m/s | -58.4°C | 4.7% | 0hPa | 0V | 00:00:00 | 00:00:00 | 00:00:00 | |
| LZ4TU-5 | 2026-09-01 00:18:12 | -12.04764 | -77.04602 | 244° | 197km/h | 1008m | 1.8m/s | -58.8°C | 4.8% | 0hPa | 0V | 00:00:00 | 00:00:00 | 00:00:00 | |
| LZ4TU-5 | 2026-09-01 00:18:07 | -12.04615 | -77.04393 | 228° | 201km/h | 1005m | 0.8m/s | -58.9°C | 4.9% | 0hPa | 0V | 00:00:00 | 00:00:00 | 00:00:00 | |
| LZ4TU-5 | 2026-09-01 00:16:16 | -12.04651 | -77.04450 | 232° | 201km/h | 999m | 1.0m/s | -57.3°C | 4.6% | 0hPa | 0V | 00:00:00 | 00:00:00 | 00:00:00 | |
| LZ4TU-5 | 2026-09-01 00:14:31 | -12.04803 | -77.04773 | 256° | 199km/h | 1001m | 0.4m/s | -56.2°C | 4.2% | 0hPa | 0V | 00:00:00 | 00:00:00 | 00:00:00 | |
| LZ4TU-5 | 2026-09-01 00:14:26 | -12.04706 | -77.04537 | 241° | 199km/h | 1006m | 0.1m/s | -56.3°C | 4.2% | 0hPa | 0V | 00:00:00 | 00:00:00 | 00:00:00 | |
| LZ4TU-5 | 2026-09-01 00:12:42 | -12.04821 | -77.04946 | 267° | 199km/h | 1002m | 0.0m/s | -57.6°C | 4.5% | 0hPa | 0V | 00:00:00 | 00:00:00 | 00:00:00 | |
| LZ4TU-5 | 2026-09-01 00:12:37 | -12.04768 | -77.04697 | 251° | 199km/h | 1002m | 0.0m/s | -57.5°C | 4.5% | 0hPa | 0V | 00:00:00 | 00:00:00 | 00:00:00 | |
| LZ4TU-5 | 2026-09-01 00:10:53 | -12.04390 | -77.05809 | 330° | 199km/h | 1006m | 0.1m/s | -58.6°C | 4.7% | 0hPa | 0V | 00:00:00 | 00:00:00 | 00:00:00 | |
| LZ4TU-5 | 2026-09-01 00:10:48 | -12.04588 | -77.05649 | 314° | 199km/h | 1002m | 0.1m/s | -58.5°C | 4.7% | 0hPa | 0V | 00:00:00 | 00:00:00 | 00:00:00 | |
| LZ4TU-5 | 2026-09-01 00:09:05 | -12.04264 | -77.05884 | 341° | 199km/h | 1013m | 0.0m/s | -58.0°C | 4.6% | 0hPa | 0V | 00:00:00 | 00:00:00 | 00:00:00 | |
| LZ4TU-5 | 2026-09-01 00:08:59 | -12.04486 | -77.05762 | 325° | 199km/h | 1013m | -0.0m/s | -57.8°C | 0% | 0hPa | 0V | 00:00:00 | 00:00:00 | 00:00:00 | |
| LZ4TU-5 | 2026-09-01 00:05:19 | -12.04073 | -77.04048 | 190° | 199km/h | 976m | 0.0m/s | -59.1°C | 5.1% | 0hPa | 0V | 00:00:00 | 00:00:00 | 00:00:00 | |
| LZ4TU-5 | 2026-09-01 00:03:45 | -12.04698 | -77.04465 | 239° | 199km/h | 989m | -0.0m/s | -58.5°C | 5.0% | 0hPa | 0V | 00:00:00 | 00:00:00 | 00:00:00 | |
| LZ4TU-5 | 2026-09-01 00:03:42 | -12.04571 | -77.04305 | 226° | 199km/h | 988m | -0.0m/s | -58.3°C | 4.9% | 0hPa | 0V | 00:00:00 | 00:00:00 | 00:00:00 | |
| LZ4TU-5 | 2026-09-01 00:00:18 | -12.04783 | -77.05274 | 291° | 199km/h | 991m | -0.0m/s | -60.0°C | 6.2% | 0hPa | 0V | 00:00:00 | 00:00:00 | 00:00:00 | |
| LZ4TU-5 | 2026-09-01 00:00:08 | -12.04837 | -77.05023 | 275° | 199km/h | 990m | -0.1m/s | -60.0°C | 6.4% | 0hPa | 0V | 00:00:00 | 00:00:00 | 00:00:00 | |
| LZ4TU-5 | 2026-08-31 23:58:27 | -12.04593 | -77.05588 | 314° | 199km/h | 993m | 0.0m/s | -60.8°C | 7.8% | 0hPa | 0V | 00:00:00 | 00:00:00 | 00:00:00 | |
| LZ4TU-5 | 2026-08-31 23:58:22 | -12.04739 | -77.05379 | 298° | 199km/h | 993m | -0.0m/s | -60.7°C | 0% | 0hPa | 0V | 00:00:00 | 00:00:00 | 00:00:00 | |
| LZ4TU-5 | 2026-08-31 23:56:39 | -12.04430 | -77.05726 | 328° | 199km/h | 990m | -0.0m/s | -61.7°C | 8.7% | 0hPa | 0V | 00:00:00 | 00:00:00 | 00:00:00 | |
| LZ4TU-5 | 2026-08-31 23:56:34 | -12.04620 | -77.05556 | 312° | 199km/h | 990m | -0.1m/s | -61.5°C | 8.7% | 0hPa | 0V | 00:00:00 | 00:00:00 | 00:00:00 | |
| LZ4TU-5 | 2026-08-31 23:54:54 | -12.04094 | -77.05862 | 351° | 199km/h | 991m | -0.0m/s | -60.9°C | 9.3% | 0hPa | 0V | 00:00:00 | 00:00:00 | 00:00:00 | |
| LZ4TU-5 | 2026-08-31 23:54:49 | -12.04334 | -77.05782 | 335° | 199km/h | 990m | -0.0m/s | -60.8°C | 9.3% | 0hPa | 0V | 00:00:00 | 00:00:00 | 00:00:00 | |
| LZ4TU-5 | 2026-08-31 23:53:09 | -12.04824 | -77.04788 | 260° | 199km/h | 989m | -0.0m/s | -60.0°C | 12.8% | 0hPa | 0V | 00:00:00 | 00:00:00 | 00:00:00 | |
| LZ4TU-5 | 2026-08-31 23:53:04 | -12.04743 | -77.04545 | 244° | 199km/h | 989m | 0.0m/s | -60.3°C | 13.4% | 0hPa | 0V | 00:00:00 | 00:00:00 | 00:00:00 | |
| LZ4TU-5 | 2026-08-31 23:51:07 | -12.04606 | -77.04342 | 229° | 199km/h | 989m | -0.0m/s | -60.9°C | 20.0% | 0hPa | 0V | 00:00:00 | 00:00:00 | 00:00:00 | |
| LZ4TU-5 | 2026-08-31 23:51:02 | -12.04412 | -77.04178 | 213° | 199km/h | 988m | 0.1m/s | -60.9°C | 16.0% | 0hPa | 0V | 00:00:00 | 00:00:00 | 00:00:00 | |
| LZ4TU-5 | 2026-08-31 23:49:14 | 44.35897 | 26.60555 | 148° | 334km/h | 12909m | -17.6m/s | -58.5°C | 13.4% | 0hPa | 0V | 00:00:00 | 00:00:00 | 00:00:00 | |
| LZ4TU-5 | 2026-08-31 23:49:09 | 44.36227 | 26.60253 | 148° | 327km/h | 12981m | -15.8m/s | -58.4°C | 13.7% | 0hPa | 0V | 00:00:00 | 00:00:00 | 00:00:00 | |
| LZ4TU-5 | 2026-08-31 23:47:10 | 44.37495 | 26.56946 | 109° | 71km/h | 12658m | 5.8m/s | -57.1°C | 16.8% | 0hPa | 0V | 00:00:00 | 00:00:00 | 00:00:00 | |
| LZ4TU-5 | 2026-08-31 23:47:06 | 44.37519 | 26.56852 | 112° | 69km/h | 12639m | 5.3m/s | -56.9°C | 16.8% | 0hPa | 0V | 00:00:00 | 00:00:00 | 00:00:00 | |
| LZ4TU-5 | 2026-08-31 23:45:31 | 44.38327 | 26.54756 | 125° | 71km/h | 12175m | 4.5m/s | -54.6°C | 19.2% | 0hPa | 0V | 00:00:00 | 00:00:00 | 00:00:00 | |
| LZ4TU-5 | 2026-08-31 23:45:26 | 44.38380 | 26.54647 | 125° | 77km/h | 12152m | 5.3m/s | -54.5°C | 19.2% | 0hPa | 0V | 00:00:00 | 00:00:00 | 00:00:00 | |
| LZ4TU-5 | 2026-08-31 23:43:44 | 44.39562 | 26.52329 | 125° | 91km/h | 11671m | 4.2m/s | -51.9°C | 32.1% | 0hPa | 0V | 00:00:00 | 00:00:00 | 00:00:00 | |
| LZ4TU-5 | 2026-08-31 23:43:38 | 44.39632 | 26.52198 | 128° | 95km/h | 11649m | 3.9m/s | -51.8°C | 32.2% | 0hPa | 0V | 00:00:00 | 00:00:00 | 00:00:00 | |
| LZ4TU-5 | 2026-08-31 23:42:04 | 44.40882 | 26.49665 | 124° | 93km/h | 11259m | 3.9m/s | -49.2°C | 32.1% | 0hPa | 0V | 00:00:00 | 00:00:00 | 00:00:00 | |
| LZ4TU-5 | 2026-08-31 23:41:59 | 44.40946 | 26.49529 | 125° | 89km/h | 11240m | 4.2m/s | -49.0°C | 31.7% | 0hPa | 0V | 00:00:00 | 00:00:00 | 00:00:00 | |
| LZ4TU-5 | 2026-08-31 23:40:34 | 44.41966 | 26.47235 | 122° | 88km/h | 10904m | 3.9m/s | -46.4°C | 29.0% | 0hPa | 0V | 00:00:00 | 00:00:00 | 00:00:00 | |
| LZ4TU-5 | 2026-08-31 23:40:29 | 44.42023 | 26.47103 | 121° | 88km/h | 10887m | 4.4m/s | -46.3°C | 28.8% | 0hPa | 0V | 00:00:00 | 00:00:00 | 00:00:00 | |
| LZ4TU-5 | 2026-08-31 23:38:59 | 44.43054 | 26.44662 | 121° | 89km/h | 10514m | 4.9m/s | -43.8°C | 38.9% | 0hPa | 0V | 00:00:00 | 00:00:00 | 00:00:00 | |
| LZ4TU-5 | 2026-08-31 23:37:10 | 44.44213 | 26.41621 | 117° | 86km/h | 10056m | 4.0m/s | -39.7°C | 30.1% | 0hPa | 0V | 00:00:00 | 00:00:00 | 00:00:00 | |
| LZ4TU-5 | 2026-08-31 23:37:05 | 44.44263 | 26.41485 | 119° | 89km/h | 10036m | 3.5m/s | -39.5°C | 0% | 0hPa | 0V | 00:00:00 | 00:00:00 | 00:00:00 | |
| LZ4TU-5 | 2026-08-31 23:35:48 | 44.45030 | 26.39359 | 118° | 88km/h | 9712m | 4.3m/s | -36.4°C | 23.0% | 0hPa | 0V | 00:00:00 | 00:00:00 | 00:00:00 | |
| LZ4TU-5 | 2026-08-31 23:35:44 | 44.45070 | 26.39249 | 119° | 88km/h | 9694m | 4.8m/s | -36.2°C | 22.8% | 0hPa | 0V | 00:00:00 | 00:00:00 | 00:00:00 | |
| LZ4TU-5 | 2026-08-31 23:34:23 | 44.45880 | 26.36985 | 117° | 89km/h | 9343m | 4.5m/s | -33.1°C | 12.6% | 0hPa | 0V | 00:00:00 | 00:00:00 | 00:00:00 | |
| LZ4TU-5 | 2026-08-31 23:34:17 | 44.45929 | 26.36849 | 119° | 84km/h | 9322m | 3.8m/s | -32.9°C | 11.5% | 0hPa | 0V | 00:00:00 | 00:00:00 | 00:00:00 | |
| LZ4TU-5 | 2026-08-31 23:32:56 | 44.46644 | 26.34782 | 117° | 69km/h | 8982m | 4.4m/s | -30.9°C | 16.2% | 0hPa | 0V | 00:00:00 | 00:00:00 | 00:00:00 | |
| LZ4TU-5 | 2026-08-31 23:32:51 | 44.46681 | 26.34674 | 114° | 68km/h | 8962m | 3.3m/s | -30.8°C | 0% | 0hPa | 0V | 00:00:00 | 00:00:00 | 00:00:00 | |
| LZ4TU-5 | 2026-08-31 23:31:42 | 44.47115 | 26.33172 | 112° | 69km/h | 8691m | 4.8m/s | !°C | 29.9% | 0hPa | 0V | 00:00:00 | 00:00:00 | 00:00:00 | |
| LZ4TU-5 | 2026-08-31 23:31:37 | 44.47147 | 26.33059 | 114° | 68km/h | 8670m | 3.4m/s | -28.9°C | 29.8% | 0hPa | 0V | 00:00:00 | 00:00:00 | 00:00:00 | |
| LZ4TU-5 | 2026-08-31 23:30:19 | 44.47643 | 26.31310 | 110° | 64km/h | 8356m | 5.0m/s | -26.0°C | 26.7% | 0hPa | 0V | 00:00:00 | 00:00:00 | 00:00:00 | |
| LZ4TU-5 | 2026-08-31 23:30:15 | 44.47673 | 26.31201 | 115° | 64km/h | 8337m | 3.6m/s | -25.8°C | 26.7% | 0hPa | 0V | 00:00:00 | 00:00:00 | 00:00:00 | |
| LZ4TU-5 | 2026-08-31 23:29:03 | 44.48065 | 26.29762 | 110° | 58km/h | 8047m | 4.3m/s | -23.1°C | 22.9% | 0hPa | 0V | 00:00:00 | 00:00:00 | 00:00:00 | |
| LZ4TU-5 | 2026-08-31 23:28:58 | 44.48087 | 26.29666 | 109° | 55km/h | 8027m | 3.1m/s | -23.0°C | 22.8% | 0hPa | 0V | 00:00:00 | 00:00:00 | 00:00:00 | |
| LZ4TU-5 | 2026-08-31 23:27:41 | 44.48413 | 26.28192 | 107° | 58km/h | 7707m | 5.3m/s | -20.2°C | 6.5% | 0hPa | 0V | 00:00:00 | 00:00:00 | 00:00:00 | |
| LZ4TU-5 | 2026-08-31 23:27:36 | 44.48436 | 26.28095 | 110° | 57km/h | 7684m | 4.6m/s | -20.0°C | 6.4% | 0hPa | 0V | 00:00:00 | 00:00:00 | 00:00:00 | |
| LZ4TU-5 | 2026-08-31 23:26:25 | 44.48717 | 26.27000 | 106° | 40km/h | 7364m | 3.8m/s | -18.6°C | 14.9% | 0hPa | 0V | 00:00:00 | 00:00:00 | 00:00:00 | |
| LZ4TU-5 | 2026-08-31 23:26:21 | 44.48727 | 26.26945 | 106° | 38km/h | 7348m | 4.1m/s | -18.4°C | 14.7% | 0hPa | 0V | 00:00:00 | 00:00:00 | 00:00:00 | |
| LZ4TU-5 | 2026-08-31 23:25:11 | 44.48860 | 26.26117 | 104° | 27km/h | 7017m | 4.9m/s | -15.8°C | 8.1% | 0hPa | 0V | 00:00:00 | 00:00:00 | 00:00:00 | |
| LZ4TU-5 | 2026-08-31 23:25:07 | 44.48869 | 26.26077 | 108° | 31km/h | 6996m | 5.2m/s | -15.7°C | 7.5% | 0hPa | 0V | 00:00:00 | 00:00:00 | 00:00:00 | |
| LZ4TU-5 | 2026-08-31 23:23:34 | 44.48855 | 26.25129 | 74° | 26km/h | 6602m | 3.6m/s | -12.8°C | 16.1% | 0hPa | 0V | 00:00:00 | 00:00:00 | 00:00:00 | |
| LZ4TU-5 | 2026-08-31 23:23:30 | 44.48849 | 26.25094 | 77° | 26km/h | 6585m | 4.3m/s | -12.6°C | 15.9% | 0hPa | 0V | 00:00:00 | 00:00:00 | 00:00:00 | |
| LZ4TU-5 | 2026-08-31 23:22:26 | 44.48833 | 26.24530 | 94° | 26km/h | 6300m | 4.5m/s | -10.8°C | 6.5% | 0hPa | 0V | 00:00:00 | 00:00:00 | 00:00:00 | |
| LZ4TU-5 | 2026-08-31 23:22:22 | 44.48837 | 26.24493 | 99° | 27km/h | 6282m | 4.1m/s | -10.7°C | 5.0% | 0hPa | 0V | 00:00:00 | 00:00:00 | 00:00:00 | |
| LZ4TU-5 | 2026-08-31 23:21:19 | 44.48832 | 26.23864 | 85° | 26km/h | 5983m | 4.6m/s | -8.9°C | 5.1% | 0hPa | 0V | 00:00:00 | 00:00:00 | 00:00:00 | |
| LZ4TU-5 | 2026-08-31 23:21:15 | 44.48829 | 26.23827 | 87° | 27km/h | 5965m | 4.4m/s | -8.8°C | 4.5% | 0hPa | 0V | 00:00:00 | 00:00:00 | 00:00:00 | |
| LZ4TU-5 | 2026-08-31 23:20:11 | 44.48756 | 26.23191 | 72° | 33km/h | 5675m | 4.1m/s | -7.2°C | 9.8% | 0hPa | 0V | 00:00:00 | 00:00:00 | 00:00:00 | |
| LZ4TU-5 | 2026-08-31 23:20:06 | 44.48744 | 26.23144 | 74° | 27km/h | 5650m | 5.3m/s | -7.0°C | 0% | 0hPa | 0V | 00:00:00 | 00:00:00 | 00:00:00 | |
| LZ4TU-5 | 2026-08-31 23:19:04 | 44.48603 | 26.22540 | 58° | 26km/h | 5341m | 3.8m/s | -5.0°C | 8.8% | 0hPa | 0V | 00:00:00 | 00:00:00 | 00:00:00 | |
| LZ4TU-5 | 2026-08-31 23:18:58 | 44.48586 | 26.22499 | 69° | 27km/h | 5317m | 5.0m/s | -4.8°C | 9.1% | 0hPa | 0V | 00:00:00 | 00:00:00 | 00:00:00 | |
| LZ4TU-5 | 2026-08-31 23:17:54 | 44.48499 | 26.22081 | 71° | 16km/h | 5033m | 3.4m/s | -2.7°C | 6.5% | 0hPa | 0V | 00:00:00 | 00:00:00 | 00:00:00 | |
| LZ4TU-5 | 2026-08-31 23:17:50 | 44.48496 | 26.22056 | 91° | 22km/h | 5014m | 3.7m/s | -2.8°C | 4.5% | 0hPa | 0V | 00:00:00 | 00:00:00 | 00:00:00 | |
| LZ4TU-5 | 2026-08-31 23:16:43 | 44.48561 | 26.21701 | 118° | 26km/h | 4703m | 6.2m/s | -2.8°C | 22.2% | 0hPa | 0V | 00:00:00 | 00:00:00 | 00:00:00 | |
| LZ4TU-5 | 2026-08-31 23:16:38 | 44.48580 | 26.21671 | 146° | 20km/h | 4675m | 4.1m/s | -2.7°C | 23.3% | 0hPa | 0V | 00:00:00 | 00:00:00 | 00:00:00 | |
| LZ4TU-5 | 2026-08-31 23:15:31 | 44.48943 | 26.21180 | 144° | 35km/h | 4354m | 5.8m/s | -1.7°C | 47.4% | 0hPa | 0V | 00:00:00 | 00:00:00 | 00:00:00 | |
| LZ4TU-5 | 2026-08-31 23:15:27 | 44.48976 | 26.21145 | 137° | 33km/h | 4332m | 4.7m/s | -1.5°C | 47.0% | 0hPa | 0V | 00:00:00 | 00:00:00 | 00:00:00 | |
| LZ4TU-5 | 2026-08-31 23:14:28 | 44.49316 | 26.20706 | 136° | 29km/h | 4065m | 5.1m/s | 1.0°C | 41.7% | 0hPa | 0V | 00:00:00 | 00:00:00 | 00:00:00 | |
| LZ4TU-5 | 2026-08-31 23:14:23 | 44.49344 | 26.20666 | 143° | 33km/h | 4045m | 3.5m/s | 1.0°C | 0% | 0hPa | 0V | 00:00:00 | 00:00:00 | 00:00:00 | |
| LZ4TU-5 | 2026-08-31 23:13:25 | 44.49638 | 26.20326 | 165° | 24km/h | 3753m | 5.6m/s | 3.2°C | 58.7% | 0hPa | 0V | 00:00:00 | 00:00:00 | 00:00:00 | |
| LZ4TU-5 | 2026-08-31 23:13:21 | 44.49664 | 26.20310 | 146° | 31km/h | 3737m | 4.3m/s | 3.4°C | 57.0% | 0hPa | 0V | 00:00:00 | 00:00:00 | 00:00:00 | |
| LZ4TU-5 | 2026-08-31 23:12:23 | 44.49977 | 26.20134 | 146° | 18km/h | 3452m | 3.0m/s | 5.2°C | 0% | 0hPa | 0V | 00:00:00 | 00:00:00 | 00:00:00 | |
| LZ4TU-5 | 2026-08-31 23:12:19 | 44.49990 | 26.20121 | 156° | 15km/h | 3436m | 3.3m/s | 5.3°C | 0% | 0hPa | 0V | 00:00:00 | 00:00:00 | 00:00:00 | |
| LZ4TU-5 | 2026-08-31 23:11:21 | 44.50072 | 26.19983 | 39° | 9km/h | 3186m | 5.2m/s | 5.8°C | 0% | 0hPa | 0V | 00:00:00 | 00:00:00 | 00:00:00 | |
| LZ4TU-5 | 2026-08-31 23:11:17 | 44.50072 | 26.19973 | 129° | 11km/h | 3161m | 5.5m/s | 5.8°C | 0% | 0hPa | 0V | 00:00:00 | 00:00:00 | 00:00:00 | |
| LZ4TU-5 | 2026-08-31 23:10:20 | 44.50143 | 26.19930 | 195° | 5km/h | 2890m | 3.7m/s | 7.5°C | 0% | 0hPa | 0V | 00:00:00 | 00:00:00 | 00:00:00 | |
| LZ4TU-5 | 2026-08-31 23:10:15 | 44.50150 | 26.19935 | 202° | 7km/h | 2867m | 4.3m/s | 7.5°C | 0% | 0hPa | 0V | 00:00:00 | 00:00:00 | 00:00:00 | |
| LZ4TU-5 | 2026-08-31 23:09:17 | 44.50227 | 26.19922 | 235° | 15km/h | 2589m | 3.9m/s | 9.8°C | 0% | 0hPa | 0V | 00:00:00 | 00:00:00 | 00:00:00 | |
| LZ4TU-5 | 2026-08-31 23:09:13 | 44.50230 | 26.19931 | 27° | 5km/h | 2574m | 4.0m/s | 0°C | 0% | 0hPa | 0V | 00:00:00 | 00:00:00 | 00:00:00 | |
| LZ4TU-5 | 2026-08-31 23:08:15 | 44.50308 | 26.19963 | 348° | 2km/h | 2287m | 4.4m/s | 0°C | 0% | 0hPa | 0V | 00:00:00 | 00:00:00 | 00:00:00 | |
| LZ4TU-5 | 2026-08-31 23:08:10 | 44.50320 | 26.19964 | 205° | 16km/h | 2259m | 6.3m/s | 0°C | 0% | 0hPa | 0V | 00:00:00 | 00:00:00 | 00:00:00 | |
| LZ4TU-5 | 2026-08-31 23:07:12 | 44.50408 | 26.20032 | 233° | 5km/h | 1967m | 4.4m/s | 0°C | 0% | 0hPa | 0V | 00:00:00 | 00:00:00 | 00:00:00 | |
| LZ4TU-5 | 2026-08-31 23:07:07 | 44.50411 | 26.20045 | 0° | 0km/h | 1939m | 4.4m/s | 0°C | 0% | 0hPa | 0V | 00:00:00 | 00:00:00 | 00:00:00 | |
| LZ4TU-5 | 2026-08-31 23:06:10 | 44.50482 | 26.20089 | 42° | 7km/h | 1657m | 4.6m/s | 0°C | 0% | 0hPa | 0V | 00:00:00 | 00:00:00 | 00:00:00 | |
| LZ4TU-5 | 2026-08-31 23:06:05 | 44.50476 | 26.20096 | 303° | 13km/h | 1631m | 5.8m/s | 0°C | 0% | 0hPa | 0V | 00:00:00 | 00:00:00 | 00:00:00 | |
| LZ4TU-5 | 2026-08-31 23:05:07 | 44.50554 | 26.20254 | 235° | 20km/h | 1347m | 6.6m/s | 0°C | 0% | 0hPa | 0V | 00:00:00 | 00:00:00 | 00:00:00 | |
| LZ4TU-5 | 2026-08-31 23:05:02 | 44.50558 | 26.20280 | 314° | 5km/h | 1323m | 3.8m/s | 0°C | 0% | 0hPa | 0V | 00:00:00 | 00:00:00 | 00:00:00 | |
| LZ4TU-5 | 2026-08-31 23:04:03 | 44.50623 | 26.20423 | 161° | 9km/h | 1020m | 4.3m/s | 0°C | 0% | 0hPa | 0V | 00:00:00 | 00:00:00 | 00:00:00 | |
| LZ4TU-5 | 2026-08-31 23:03:58 | 44.50633 | 26.20420 | 283° | 4km/h | 998m | 4.9m/s | 0°C | 0% | 0hPa | 0V | 00:00:00 | 00:00:00 | 00:00:00 |